sensor_id;sensor_type;location;lat;lon;timestamp;pressure;altitude;pressure_sealevel;temperature;humidity
68807;BME280;55800;54.272;18.558;2023-02-18T00:02:06;99214.25;;;6.59;68.23
68807;BME280;55800;54.272;18.558;2023-02-18T00:04:36;99240.63;;;6.62;67.96
68807;BME280;55800;54.272;18.558;2023-02-18T00:07:05;99178.78;;;6.60;68.86
68807;BME280;55800;54.272;18.558;2023-02-18T00:09:37;99265.63;;;6.58;68.62
68807;BME280;55800;54.272;18.558;2023-02-18T00:12:07;99196.75;;;6.55;68.93
68807;BME280;55800;54.272;18.558;2023-02-18T00:14:37;99252.63;;;6.52;69.08
68807;BME280;55800;54.272;18.558;2023-02-18T00:17:06;99259.59;;;6.54;68.28
68807;BME280;55800;54.272;18.558;2023-02-18T00:19:35;99244.53;;;6.55;68.38
68807;BME280;55800;54.272;18.558;2023-02-18T00:22:05;99251.56;;;6.56;68.02
68807;BME280;55800;54.272;18.558;2023-02-18T00:24:35;99241.88;;;6.55;67.38
68807;BME280;55800;54.272;18.558;2023-02-18T00:27:05;99237.44;;;6.55;67.27
68807;BME280;55800;54.272;18.558;2023-02-18T00:29:34;99276.25;;;6.58;66.96
68807;BME280;55800;54.272;18.558;2023-02-18T00:32:05;99250.44;;;6.61;66.91
68807;BME280;55800;54.272;18.558;2023-02-18T00:34:36;99261.75;;;6.65;66.05
68807;BME280;55800;54.272;18.558;2023-02-18T00:37:05;99252.91;;;6.64;66.24
68807;BME280;55800;54.272;18.558;2023-02-18T00:39:36;99288.19;;;6.68;65.89
68807;BME280;55800;54.272;18.558;2023-02-18T00:42:05;99281.00;;;6.70;65.94
68807;BME280;55800;54.272;18.558;2023-02-18T00:44:34;99271.22;;;6.70;66.71
68807;BME280;55800;54.272;18.558;2023-02-18T00:47:03;99296.06;;;6.69;66.71
68807;BME280;55800;54.272;18.558;2023-02-18T00:49:33;99312.91;;;6.68;67.41
68807;BME280;55800;54.272;18.558;2023-02-18T00:52:04;99279.41;;;6.66;67.61
68807;BME280;55800;54.272;18.558;2023-02-18T00:54:35;99304.09;;;6.68;67.62
68807;BME280;55800;54.272;18.558;2023-02-18T00:57:04;99322.03;;;6.63;67.44
68807;BME280;55800;54.272;18.558;2023-02-18T00:59:33;99307.97;;;6.61;67.47
68807;BME280;55800;54.272;18.558;2023-02-18T01:02:02;99309.06;;;6.57;67.70
68807;BME280;55800;54.272;18.558;2023-02-18T01:04:34;99314.56;;;6.52;68.12
68807;BME280;55800;54.272;18.558;2023-02-18T01:07:03;99312.84;;;6.51;68.25
68807;BME280;55800;54.272;18.558;2023-02-18T01:09:34;99314.56;;;6.52;68.02
68807;BME280;55800;54.272;18.558;2023-02-18T01:12:04;99315.66;;;6.48;68.03
68807;BME280;55800;54.272;18.558;2023-02-18T01:14:33;99312.00;;;6.51;67.49
68807;BME280;55800;54.272;18.558;2023-02-18T01:17:02;99311.22;;;6.49;67.45
68807;BME280;55800;54.272;18.558;2023-02-18T01:19:32;99304.25;;;6.46;66.89
68807;BME280;55800;54.272;18.558;2023-02-18T01:22:01;99308.69;;;6.46;67.16
68807;BME280;55800;54.272;18.558;2023-02-18T01:24:31;99322.63;;;6.51;67.34
68807;BME280;55800;54.272;18.558;2023-02-18T01:27:01;99318.31;;;6.48;66.70
68807;BME280;55800;54.272;18.558;2023-02-18T01:29:31;99327.13;;;6.49;67.35
68807;BME280;55800;54.272;18.558;2023-02-18T01:32:01;99329.72;;;6.50;66.51
68807;BME280;55800;54.272;18.558;2023-02-18T01:34:30;99321.66;;;6.52;66.11
68807;BME280;55800;54.272;18.558;2023-02-18T01:36:59;99346.44;;;6.52;66.24
68807;BME280;55800;54.272;18.558;2023-02-18T01:39:29;99336.53;;;6.56;66.08
68807;BME280;55800;54.272;18.558;2023-02-18T01:41:58;99317.88;;;6.57;65.79
68807;BME280;55800;54.272;18.558;2023-02-18T01:44:29;99334.66;;;6.58;65.31
68807;BME280;55800;54.272;18.558;2023-02-18T01:47:00;99338.97;;;6.60;65.22
68807;BME280;55800;54.272;18.558;2023-02-18T01:49:32;99328.44;;;6.59;64.80
68807;BME280;55800;54.272;18.558;2023-02-18T01:52:07;99319.31;;;6.64;65.41
68807;BME280;55800;54.272;18.558;2023-02-18T01:54:40;99319.25;;;6.66;64.68
68807;BME280;55800;54.272;18.558;2023-02-18T01:57:13;99309.53;;;6.65;64.39
68807;BME280;55800;54.272;18.558;2023-02-18T01:59:47;99327.22;;;6.66;64.80
68807;BME280;55800;54.272;18.558;2023-02-18T02:02:20;99339.53;;;6.67;64.15
68807;BME280;55800;54.272;18.558;2023-02-18T02:04:50;99332.59;;;6.64;63.78
68807;BME280;55800;54.272;18.558;2023-02-18T02:07:20;99321.91;;;6.66;64.12
68807;BME280;55800;54.272;18.558;2023-02-18T02:09:51;99322.03;;;6.63;64.32
68807;BME280;55800;54.272;18.558;2023-02-18T02:12:34;99346.72;;;6.65;63.89
68807;BME280;55800;54.272;18.558;2023-02-18T02:15:36;99353.78;;;6.66;63.87
68807;BME280;55800;54.272;18.558;2023-02-18T02:21:37;99340.53;;;6.64;63.07
68807;BME280;55800;54.272;18.558;2023-02-18T02:24:33;99359.13;;;6.64;63.82
68807;BME280;55800;54.272;18.558;2023-02-18T02:27:18;99342.19;;;6.67;63.29
68807;BME280;55800;54.272;18.558;2023-02-18T02:30:21;99346.72;;;6.65;63.05
68807;BME280;55800;54.272;18.558;2023-02-18T02:36:07;99359.88;;;6.68;62.87
68807;BME280;55800;54.272;18.558;2023-02-18T02:38:53;99358.25;;;6.64;62.79
68807;BME280;55800;54.272;18.558;2023-02-18T02:41:38;99369.72;;;6.66;63.10
68807;BME280;55800;54.272;18.558;2023-02-18T02:44:18;99335.19;;;6.66;62.79
68807;BME280;55800;54.272;18.558;2023-02-18T02:46:51;99346.59;;;6.68;62.96
68807;BME280;55800;54.272;18.558;2023-02-18T02:49:34;99360.78;;;6.67;63.14
68807;BME280;55800;54.272;18.558;2023-02-18T02:52:11;99379.38;;;6.67;63.14
68807;BME280;55800;54.272;18.558;2023-02-18T02:54:41;99374.16;;;6.65;62.78
68807;BME280;55800;54.272;18.558;2023-02-18T02:57:42;99348.47;;;6.66;62.64
68807;BME280;55800;54.272;18.558;2023-02-18T03:00:18;99351.13;;;6.66;62.74
68807;BME280;55800;54.272;18.558;2023-02-18T03:03:08;99367.97;;;6.65;62.76
68807;BME280;55800;54.272;18.558;2023-02-18T03:06:00;99371.63;;;6.62;62.86
68807;BME280;55800;54.272;18.558;2023-02-18T03:08:46;99377.88;;;6.61;63.02
68807;BME280;55800;54.272;18.558;2023-02-18T03:11:20;99392.00;;;6.62;62.50
68807;BME280;55800;54.272;18.558;2023-02-18T03:13:55;99362.78;;;6.62;62.49
68807;BME280;55800;54.272;18.558;2023-02-18T03:16:36;99369.03;;;6.61;62.54
68807;BME280;55800;54.272;18.558;2023-02-18T03:19:13;99395.53;;;6.62;62.62
68807;BME280;55800;54.272;18.558;2023-02-18T03:21:50;99377.00;;;6.61;62.52
68807;BME280;55800;54.272;18.558;2023-02-18T03:24:26;99385.91;;;6.60;62.69
68807;BME280;55800;54.272;18.558;2023-02-18T03:26:59;99372.78;;;6.57;62.32
68807;BME280;55800;54.272;18.558;2023-02-18T03:29:33;99408.22;;;6.56;62.36
68807;BME280;55800;54.272;18.558;2023-02-18T03:32:07;99407.50;;;6.52;62.92
68807;BME280;55800;54.272;18.558;2023-02-18T03:34:39;99379.19;;;6.51;62.83
68807;BME280;55800;54.272;18.558;2023-02-18T03:37:10;99404.97;;;6.49;62.37
68807;BME280;55800;54.272;18.558;2023-02-18T03:39:44;99377.56;;;6.49;62.55
68807;BME280;55800;54.272;18.558;2023-02-18T03:42:15;99413.09;;;6.46;62.64
68807;BME280;55800;54.272;18.558;2023-02-18T03:44:45;99416.72;;;6.44;63.13
68807;BME280;55800;54.272;18.558;2023-02-18T03:47:15;99430.13;;;6.41;63.49
68807;BME280;55800;54.272;18.558;2023-02-18T03:49:44;99432.78;;;6.41;63.41
68807;BME280;55800;54.272;18.558;2023-02-18T03:52:13;99434.44;;;6.43;63.03
68807;BME280;55800;54.272;18.558;2023-02-18T03:54:44;99438.09;;;6.41;63.56
68807;BME280;55800;54.272;18.558;2023-02-18T03:57:13;99471.94;;;6.36;62.92
68807;BME280;55800;54.272;18.558;2023-02-18T03:59:42;99458.69;;;6.36;63.28
68807;BME280;55800;54.272;18.558;2023-02-18T04:02:12;99406.50;;;6.35;63.25
68807;BME280;55800;54.272;18.558;2023-02-18T04:04:41;99435.69;;;6.35;62.92
68807;BME280;55800;54.272;18.558;2023-02-18T04:07:10;99466.75;;;6.32;63.35
68807;BME280;55800;54.272;18.558;2023-02-18T04:09:40;99429.75;;;6.29;62.89
68807;BME280;55800;54.272;18.558;2023-02-18T04:12:11;99442.88;;;6.32;62.91
68807;BME280;55800;54.272;18.558;2023-02-18T04:14:40;99446.50;;;6.30;62.43
68807;BME280;55800;54.272;18.558;2023-02-18T04:17:10;99436.91;;;6.27;62.31
68807;BME280;55800;54.272;18.558;2023-02-18T04:19:39;99437.03;;;6.24;61.86
68807;BME280;55800;54.272;18.558;2023-02-18T04:22:08;99449.41;;;6.25;61.97
68807;BME280;55800;54.272;18.558;2023-02-18T04:24:37;99447.53;;;6.27;62.10
68807;BME280;55800;54.272;18.558;2023-02-18T04:27:07;99452.97;;;6.24;62.00
68807;BME280;55800;54.272;18.558;2023-02-18T04:29:38;99452.88;;;6.26;61.78
68807;BME280;55800;54.272;18.558;2023-02-18T04:32:08;99475.94;;;6.25;61.96
68807;BME280;55800;54.272;18.558;2023-02-18T04:34:37;99445.00;;;6.24;61.85
68807;BME280;55800;54.272;18.558;2023-02-18T04:37:07;99483.94;;;6.24;62.14
68807;BME280;55800;54.272;18.558;2023-02-18T04:39:36;99466.22;;;6.24;62.00
68807;BME280;55800;54.272;18.558;2023-02-18T04:42:05;99437.16;;;6.21;61.83
68807;BME280;55800;54.272;18.558;2023-02-18T04:44:38;99449.63;;;6.19;61.87
68807;BME280;55800;54.272;18.558;2023-02-18T06:42:33;99631.31;;;5.65;63.74
68807;BME280;55800;54.272;18.558;2023-02-18T06:45:03;99629.59;;;5.64;63.90
68807;BME280;55800;54.272;18.558;2023-02-18T06:47:34;99626.88;;;5.65;63.79
68807;BME280;55800;54.272;18.558;2023-02-18T06:50:05;99640.16;;;5.65;63.78
68807;BME280;55800;54.272;18.558;2023-02-18T06:52:36;99647.06;;;5.69;63.91
68807;BME280;55800;54.272;18.558;2023-02-18T06:55:07;99637.16;;;5.74;63.89
68807;BME280;55800;54.272;18.558;2023-02-18T06:57:39;99631.72;;;5.77;63.58
68807;BME280;55800;54.272;18.558;2023-02-18T07:00:09;99647.63;;;5.77;63.65
68807;BME280;55800;54.272;18.558;2023-02-18T07:02:38;99646.72;;;5.78;63.71
68807;BME280;55800;54.272;18.558;2023-02-18T07:05:08;99659.03;;;5.79;63.50
68807;BME280;55800;54.272;18.558;2023-02-18T07:07:37;99663.44;;;5.80;63.45
68807;BME280;55800;54.272;18.558;2023-02-18T07:10:08;99663.44;;;5.80;63.51
68807;BME280;55800;54.272;18.558;2023-02-18T07:12:41;99673.03;;;5.84;63.69
68807;BME280;55800;54.272;18.558;2023-02-18T07:15:11;99649.25;;;5.81;63.23
68807;BME280;55800;54.272;18.558;2023-02-18T07:17:40;99660.66;;;5.85;63.46
68807;BME280;55800;54.272;18.558;2023-02-18T07:20:10;99641.22;;;5.84;62.97
68807;BME280;55800;54.272;18.558;2023-02-18T07:22:39;99671.25;;;5.83;63.07
68807;BME280;55800;54.272;18.558;2023-02-18T07:25:08;99664.22;;;5.84;63.05
68807;BME280;55800;54.272;18.558;2023-02-18T07:27:38;99664.09;;;5.87;63.20
68807;BME280;55800;54.272;18.558;2023-02-18T07:30:10;99645.47;;;5.88;62.96
68807;BME280;55800;54.272;18.558;2023-02-18T07:32:42;99677.31;;;5.88;62.68
68807;BME280;55800;54.272;18.558;2023-02-18T07:35:14;99664.03;;;5.88;62.91
68807;BME280;55800;54.272;18.558;2023-02-18T07:37:44;99670.97;;;5.92;62.63
68807;BME280;55800;54.272;18.558;2023-02-18T07:40:15;99678.91;;;5.92;62.50
68807;BME280;55800;54.272;18.558;2023-02-18T07:42:45;99672.72;;;5.92;62.47
68807;BME280;55800;54.272;18.558;2023-02-18T07:45:16;99673.75;;;5.89;62.33
68807;BME280;55800;54.272;18.558;2023-02-18T07:47:48;99682.44;;;5.93;62.26
68807;BME280;55800;54.272;18.558;2023-02-18T07:50:17;99675.47;;;5.90;62.08
68807;BME280;55800;54.272;18.558;2023-02-18T07:52:47;99680.75;;;5.90;62.27
68807;BME280;55800;54.272;18.558;2023-02-18T07:55:16;99691.28;;;5.93;62.23
68807;BME280;55800;54.272;18.558;2023-02-18T07:57:46;99677.06;;;5.94;62.18
68807;BME280;55800;54.272;18.558;2023-02-18T08:00:38;99705.22;;;5.98;62.40
68807;BME280;55800;54.272;18.558;2023-02-18T08:03:07;99710.34;;;6.03;62.18
68807;BME280;55800;54.272;18.558;2023-02-18T08:05:37;99692.66;;;6.03;62.19
68807;BME280;55800;54.272;18.558;2023-02-18T08:08:06;99697.72;;;6.09;62.44
68807;BME280;55800;54.272;18.558;2023-02-18T08:10:35;99694.00;;;6.13;62.13
68807;BME280;55800;54.272;18.558;2023-02-18T08:13:04;99725.63;;;6.19;62.62
68807;BME280;55800;54.272;18.558;2023-02-18T08:15:34;99710.50;;;6.21;62.16
68807;BME280;55800;54.272;18.558;2023-02-18T08:18:06;99698.09;;;6.22;61.95
68807;BME280;55800;54.272;18.558;2023-02-18T08:20:36;99711.31;;;6.23;62.04
68807;BME280;55800;54.272;18.558;2023-02-18T08:23:06;99721.91;;;6.23;61.98
68807;BME280;55800;54.272;18.558;2023-02-18T08:25:35;99719.16;;;6.26;62.04
68807;BME280;55800;54.272;18.558;2023-02-18T08:28:05;99708.38;;;6.31;62.00
68807;BME280;55800;54.272;18.558;2023-02-18T08:30:34;99728.50;;;6.37;61.84
68807;BME280;55800;54.272;18.558;2023-02-18T08:33:05;99717.88;;;6.37;61.89
68807;BME280;55800;54.272;18.558;2023-02-18T08:35:35;99727.44;;;6.41;61.98
68807;BME280;55800;54.272;18.558;2023-02-18T08:38:04;99734.50;;;6.42;61.72
68807;BME280;55800;54.272;18.558;2023-02-18T08:40:34;99733.44;;;6.46;61.95
68807;BME280;55800;54.272;18.558;2023-02-18T08:43:03;99744.69;;;6.52;61.87
68807;BME280;55800;54.272;18.558;2023-02-18T08:45:33;99752.56;;;6.55;61.75
68807;BME280;55800;54.272;18.558;2023-02-18T08:48:07;99741.88;;;6.57;60.95
68807;BME280;55800;54.272;18.558;2023-02-18T08:50:47;99733.97;;;6.55;61.56
68807;BME280;55800;54.272;18.558;2023-02-18T08:53:17;99749.81;;;6.57;61.27
68807;BME280;55800;54.272;18.558;2023-02-18T08:55:46;99748.88;;;6.58;61.34
68807;BME280;55800;54.272;18.558;2023-02-18T08:58:16;99761.53;;;6.51;61.15
68807;BME280;55800;54.272;18.558;2023-02-18T09:00:45;99741.06;;;6.55;61.46
68807;BME280;55800;54.272;18.558;2023-02-18T09:03:17;99742.84;;;6.54;61.04
68807;BME280;55800;54.272;18.558;2023-02-18T09:05:47;99735.75;;;6.55;60.94
68807;BME280;55800;54.272;18.558;2023-02-18T09:08:16;99749.75;;;6.58;60.97
68807;BME280;55800;54.272;18.558;2023-02-18T09:10:46;99747.03;;;6.60;60.71
68807;BME280;55800;54.272;18.558;2023-02-18T09:13:15;99755.94;;;6.59;60.91
68807;BME280;55800;54.272;18.558;2023-02-18T09:15:45;99749.81;;;6.57;60.70
68807;BME280;55800;54.272;18.558;2023-02-18T09:18:16;99748.88;;;6.58;60.64
68807;BME280;55800;54.272;18.558;2023-02-18T09:20:45;99759.50;;;6.58;60.69
68807;BME280;55800;54.272;18.558;2023-02-18T09:23:14;99765.59;;;6.61;60.95
68807;BME280;55800;54.272;18.558;2023-02-18T09:25:44;99762.78;;;6.64;60.61
68807;BME280;55800;54.272;18.558;2023-02-18T09:28:14;99762.84;;;6.63;60.42
68807;BME280;55800;54.272;18.558;2023-02-18T09:30:43;99777.19;;;6.59;59.91
68807;BME280;55800;54.272;18.558;2023-02-18T09:33:13;99779.03;;;6.57;60.21
68807;BME280;55800;54.272;18.558;2023-02-18T09:35:45;99789.41;;;6.63;60.45
68807;BME280;55800;54.272;18.558;2023-02-18T09:38:16;99800.16;;;6.60;60.21
68807;BME280;55800;54.272;18.558;2023-02-18T09:40:49;99785.09;;;6.60;59.88
68807;BME280;55800;54.272;18.558;2023-02-18T09:43:26;99784.03;;;6.64;60.10
68807;BME280;55800;54.272;18.558;2023-02-18T09:45:58;99797.84;;;6.74;60.43
68807;BME280;55800;54.272;18.558;2023-02-18T09:48:30;99793.31;;;6.76;60.15
68807;BME280;55800;54.272;18.558;2023-02-18T09:51:02;99787.78;;;6.82;60.38
68807;BME280;55800;54.272;18.558;2023-02-18T09:53:31;99788.47;;;6.87;60.03
68807;BME280;55800;54.272;18.558;2023-02-18T09:56:01;99800.63;;;6.92;60.15
68807;BME280;55800;54.272;18.558;2023-02-18T09:58:31;99806.56;;;6.99;59.88
68807;BME280;55800;54.272;18.558;2023-02-18T10:01:05;99811.88;;;6.99;59.60
68807;BME280;55800;54.272;18.558;2023-02-18T10:03:39;99803.09;;;6.97;59.35
68807;BME280;55800;54.272;18.558;2023-02-18T10:06:17;99849.16;;;6.97;59.57
68807;BME280;55800;54.272;18.558;2023-02-18T10:08:50;99828.69;;;6.99;59.54
68807;BME280;55800;54.272;18.558;2023-02-18T10:11:23;99821.44;;;7.03;59.74
68807;BME280;55800;54.272;18.558;2023-02-18T10:13:57;99803.66;;;7.05;59.13
68807;BME280;55800;54.272;18.558;2023-02-18T10:16:30;99799.94;;;7.09;59.49
68807;BME280;55800;54.272;18.558;2023-02-18T10:19:03;99810.63;;;7.07;59.18
68807;BME280;55800;54.272;18.558;2023-02-18T10:21:35;99807.09;;;7.07;59.32
68807;BME280;55800;54.272;18.558;2023-02-18T10:24:09;99806.81;;;7.15;60.16
68807;BME280;55800;54.272;18.558;2023-02-18T10:26:43;99805.75;;;7.19;59.64
68807;BME280;55800;54.272;18.558;2023-02-18T10:29:15;99808.47;;;7.17;59.25
68807;BME280;55800;54.272;18.558;2023-02-18T10:31:51;99804.88;;;7.18;59.50
68807;BME280;55800;54.272;18.558;2023-02-18T10:34:35;99805.53;;;7.23;59.55
68807;BME280;55800;54.272;18.558;2023-02-18T10:37:25;99825.78;;;7.27;59.57
68807;BME280;55800;54.272;18.558;2023-02-18T10:40:08;99801.97;;;7.24;59.61
68807;BME280;55800;54.272;18.558;2023-02-18T10:42:49;99836.16;;;7.33;59.82
68807;BME280;55800;54.272;18.558;2023-02-18T10:45:29;99811.53;;;7.28;59.29
68807;BME280;55800;54.272;18.558;2023-02-18T10:48:10;99807.91;;;7.31;59.08
68807;BME280;55800;54.272;18.558;2023-02-18T10:50:48;99803.66;;;7.27;58.46
68807;BME280;55800;54.272;18.558;2023-02-18T10:53:21;99797.19;;;7.32;58.36
68807;BME280;55800;54.272;18.558;2023-02-18T10:55:51;99791.75;;;7.35;58.30
68807;BME280;55800;54.272;18.558;2023-02-18T10:58:27;99787.44;;;7.33;58.40
68807;BME280;55800;54.272;18.558;2023-02-18T11:00:58;99805.31;;;7.29;57.77
68807;BME280;55800;54.272;18.558;2023-02-18T11:03:40;99775.94;;;7.32;58.30
68807;BME280;55800;54.272;18.558;2023-02-18T11:06:24;99799.47;;;7.41;58.81
68807;BME280;55800;54.272;18.558;2023-02-18T11:09:00;99806.47;;;7.44;59.07
68807;BME280;55800;54.272;18.558;2023-02-18T11:11:32;99803.00;;;7.42;59.14
68807;BME280;55800;54.272;18.558;2023-02-18T11:14:04;99793.38;;;7.39;58.65
68807;BME280;55800;54.272;18.558;2023-02-18T11:16:40;99805.72;;;7.40;58.43
68807;BME280;55800;54.272;18.558;2023-02-18T11:19:31;99803.13;;;7.39;58.95
68807;BME280;55800;54.272;18.558;2023-02-18T11:22:10;99807.47;;;7.41;58.42
68807;BME280;55800;54.272;18.558;2023-02-18T11:24:43;99808.50;;;7.37;58.21
68807;BME280;55800;54.272;18.558;2023-02-18T11:27:22;99803.38;;;7.33;58.10
68807;BME280;55800;54.272;18.558;2023-02-18T11:29:55;99805.16;;;7.32;58.57
68807;BME280;55800;54.272;18.558;2023-02-18T11:32:28;99811.44;;;7.31;58.65
68807;BME280;55800;54.272;18.558;2023-02-18T11:34:59;99816.00;;;7.28;58.94
68807;BME280;55800;54.272;18.558;2023-02-18T11:37:32;99808.78;;;7.31;58.79
68807;BME280;55800;54.272;18.558;2023-02-18T11:40:04;99804.25;;;7.33;58.71
68807;BME280;55800;54.272;18.558;2023-02-18T11:42:35;99812.88;;;7.38;59.18
68807;BME280;55800;54.272;18.558;2023-02-18T11:45:05;99805.72;;;7.40;58.41
68807;BME280;55800;54.272;18.558;2023-02-18T11:47:37;99797.63;;;7.43;58.65
68807;BME280;55800;54.272;18.558;2023-02-18T11:50:20;99787.06;;;7.42;58.21
68807;BME280;55800;54.272;18.558;2023-02-18T11:52:50;99797.69;;;7.42;58.23
68807;BME280;55800;54.272;18.558;2023-02-18T11:55:24;99777.41;;;7.39;57.98
68807;BME280;55800;54.272;18.558;2023-02-18T11:57:57;99820.94;;;7.37;58.39
68807;BME280;55800;54.272;18.558;2023-02-18T12:00:36;99797.88;;;7.37;58.75
68807;BME280;55800;54.272;18.558;2023-02-18T12:03:16;99807.53;;;7.40;58.38
68807;BME280;55800;54.272;18.558;2023-02-18T12:05:47;99796.69;;;7.44;58.63
68807;BME280;55800;54.272;18.558;2023-02-18T12:08:21;99799.28;;;7.46;58.33
68807;BME280;55800;54.272;18.558;2023-02-18T12:10:55;99795.66;;;7.48;58.66
68807;BME280;55800;54.272;18.558;2023-02-18T12:13:32;99795.66;;;7.48;58.27
68807;BME280;55800;54.272;18.558;2023-02-18T12:16:10;99796.09;;;7.38;57.83
68807;BME280;55800;54.272;18.558;2023-02-18T12:18:53;99805.84;;;7.37;58.09
68807;BME280;55800;54.272;18.558;2023-02-18T12:21:35;99795.06;;;7.40;57.97
68807;BME280;55800;54.272;18.558;2023-02-18T12:24:21;99806.50;;;7.42;58.41
68807;BME280;55800;54.272;18.558;2023-02-18T12:27:01;99798.31;;;7.48;58.42
68807;BME280;55800;54.272;18.558;2023-02-18T12:29:45;99808.94;;;7.48;58.32
68807;BME280;55800;54.272;18.558;2023-02-18T12:32:37;99798.34;;;7.47;58.00
68807;BME280;55800;54.272;18.558;2023-02-18T12:38:45;99802.75;;;7.48;58.98
68807;BME280;55800;54.272;18.558;2023-02-18T12:41:30;99803.63;;;7.48;57.84
68807;BME280;55800;54.272;18.558;2023-02-18T12:44:17;99805.72;;;7.40;57.88
68807;BME280;55800;54.272;18.558;2023-02-18T12:47:19;99801.41;;;7.38;57.97
68807;BME280;55800;54.272;18.558;2023-02-18T12:50:08;99807.56;;;7.38;58.02
68807;BME280;55800;54.272;18.558;2023-02-18T12:52:49;99806.72;;;7.38;58.19
68807;BME280;55800;54.272;18.558;2023-02-18T12:55:34;99808.44;;;7.39;58.75
68807;BME280;55800;54.272;18.558;2023-02-18T12:58:16;99799.41;;;7.43;58.96
68807;BME280;55800;54.272;18.558;2023-02-18T13:01:27;99787.78;;;7.45;58.38
68807;BME280;55800;54.272;18.558;2023-02-18T13:04:23;99794.09;;;7.43;58.39
68807;BME280;55800;54.272;18.558;2023-02-18T13:07:25;99807.56;;;7.38;58.69
68807;BME280;55800;54.272;18.558;2023-02-18T13:10:12;99799.56;;;7.40;58.86
68807;BME280;55800;54.272;18.558;2023-02-18T13:12:54;99810.91;;;7.43;59.44
68807;BME280;55800;54.272;18.558;2023-02-18T13:15:37;99801.06;;;7.45;59.27
68807;BME280;55800;54.272;18.558;2023-02-18T13:18:12;99803.63;;;7.48;58.92
68807;BME280;55800;54.272;18.558;2023-02-18T13:20:47;99796.69;;;7.44;58.61
68807;BME280;55800;54.272;18.558;2023-02-18T13:23:20;99801.25;;;7.41;58.54
68807;BME280;55800;54.272;18.558;2023-02-18T13:25:57;99805.59;;;7.43;58.88
68807;BME280;55800;54.272;18.558;2023-02-18T13:28:34;99791.50;;;7.41;58.40
68807;BME280;55800;54.272;18.558;2023-02-18T13:34:08;99799.81;;;7.34;58.60
68807;BME280;55800;54.272;18.558;2023-02-18T13:36:51;99777.66;;;7.33;58.73
68807;BME280;55800;54.272;18.558;2023-02-18T13:39:25;99796.28;;;7.33;59.01
68807;BME280;55800;54.272;18.558;2023-02-18T13:42:18;99801.63;;;7.32;59.14
68807;BME280;55800;54.272;18.558;2023-02-18T13:47:58;99792.56;;;7.37;59.15
68807;BME280;55800;54.272;18.558;2023-02-18T13:50:38;99789.91;;;7.37;59.25
68807;BME280;55800;54.272;18.558;2023-02-18T13:53:13;99795.22;;;7.37;59.38
68807;BME280;55800;54.272;18.558;2023-02-18T13:55:55;99794.53;;;7.32;59.21
68807;BME280;55800;54.272;18.558;2023-02-18T13:58:30;99792.81;;;7.31;59.45
68807;BME280;55800;54.272;18.558;2023-02-18T14:01:03;99797.28;;;7.31;59.81
68807;BME280;55800;54.272;18.558;2023-02-18T14:03:48;99798.94;;;7.33;59.44
68807;BME280;55800;54.272;18.558;2023-02-18T14:06:22;99787.63;;;7.28;59.28
68807;BME280;55800;54.272;18.558;2023-02-18T14:09:01;99777.94;;;7.27;59.42
68807;BME280;55800;54.272;18.558;2023-02-18T14:11:40;99785.22;;;7.22;59.39
68807;BME280;55800;54.272;18.558;2023-02-18T14:14:32;99779.97;;;7.21;59.67
68807;BME280;55800;54.272;18.558;2023-02-18T14:20:32;99785.47;;;7.16;59.81
68807;BME280;55800;54.272;18.558;2023-02-18T14:23:37;99777.44;;;7.18;59.82
68807;BME280;55800;54.272;18.558;2023-02-18T14:26:08;99785.59;;;7.13;59.95
68807;BME280;55800;54.272;18.558;2023-02-18T14:28:54;99780.28;;;7.13;59.95
68807;BME280;55800;54.272;18.558;2023-02-18T14:31:32;99784.00;;;7.09;60.14
68807;BME280;55800;54.272;18.558;2023-02-18T14:34:42;99785.75;;;7.10;60.39
68807;BME280;55800;54.272;18.558;2023-02-18T14:40:47;99785.75;;;7.10;60.01
68807;BME280;55800;54.272;18.558;2023-02-18T14:43:37;99784.13;;;7.06;59.87
68807;BME280;55800;54.272;18.558;2023-02-18T14:46:20;99784.00;;;7.09;60.15
68807;BME280;55800;54.272;18.558;2023-02-18T14:49:04;99786.72;;;7.07;60.01
68807;BME280;55800;54.272;18.558;2023-02-18T14:51:40;99794.63;;;7.09;60.11
68807;BME280;55800;54.272;18.558;2023-02-18T14:54:14;99794.78;;;7.06;60.09
68807;BME280;55800;54.272;18.558;2023-02-18T14:56:54;99795.78;;;7.02;60.08
68807;BME280;55800;54.272;18.558;2023-02-18T14:59:27;99803.03;;;6.98;59.89
68807;BME280;55800;54.272;18.558;2023-02-18T15:01:58;99802.31;;;6.95;60.02
68807;BME280;55800;54.272;18.558;2023-02-18T15:04:27;99809.50;;;6.91;60.13
68807;BME280;55800;54.272;18.558;2023-02-18T15:06:59;99803.53;;;6.86;60.09
68807;BME280;55800;54.272;18.558;2023-02-18T15:09:29;99811.56;;;6.85;60.09
68807;BME280;55800;54.272;18.558;2023-02-18T15:12:02;99811.69;;;6.82;60.36
68807;BME280;55800;54.272;18.558;2023-02-18T15:14:35;99803.78;;;6.80;60.77
68807;BME280;55800;54.272;18.558;2023-02-18T15:17:12;99799.31;;;6.81;60.60
68807;BME280;55800;54.272;18.558;2023-02-18T15:19:46;99804.41;;;6.87;60.71
68807;BME280;55800;54.272;18.558;2023-02-18T15:22:20;99805.25;;;6.87;60.71
68807;BME280;55800;54.272;18.558;2023-02-18T15:24:50;99798.16;;;6.88;60.87
68807;BME280;55800;54.272;18.558;2023-02-18T15:27:24;99797.53;;;6.81;61.24
68807;BME280;55800;54.272;18.558;2023-02-18T15:29:58;99800.25;;;6.80;61.21
68807;BME280;55800;54.272;18.558;2023-02-18T15:32:34;99795.84;;;6.79;61.12
68807;BME280;55800;54.272;18.558;2023-02-18T15:35:14;99798.50;;;6.79;61.16
68807;BME280;55800;54.272;18.558;2023-02-18T15:37:53;99806.69;;;6.74;61.13
68807;BME280;55800;54.272;18.558;2023-02-18T15:40:26;99800.66;;;6.69;61.32
68807;BME280;55800;54.272;18.558;2023-02-18T15:43:00;99817.47;;;6.70;61.63
68807;BME280;55800;54.272;18.558;2023-02-18T15:45:32;99803.41;;;6.68;61.37
68807;BME280;55800;54.272;18.558;2023-02-18T15:48:04;99804.41;;;6.64;61.63
68807;BME280;55800;54.272;18.558;2023-02-18T15:50:37;99808.81;;;6.65;61.69
68807;BME280;55800;54.272;18.558;2023-02-18T15:53:15;99810.66;;;6.63;61.78
68807;BME280;55800;54.272;18.558;2023-02-18T15:55:49;99818.69;;;6.61;61.71
68807;BME280;55800;54.272;18.558;2023-02-18T15:58:28;99811.81;;;6.56;61.89